Time;durP1;ratioP1;P1;durP2;ratioP2;P2;SDS_P1;SDS_P2;PMS_P1;PMS_P2;Temp;Humidity;BMP_temperature;BMP_pressure;BME280_temperature;BME280_humidity;BME280_pressure;Samples;Min_cycle;Max_cycle;Signal;HPM_P1;HPM_P2
2021/08/12 00:02:33;;;;;;;3.97;2.88;;;;;;;-148.56;100.00;61375.16;4996434;28;20593;-31
2021/08/12 00:05:57;;;;;;;5.63;3.50;;;;;;;-148.56;100.00;61375.16;4991361;28;20526;-34
2021/08/12 00:09:21;;;;;;;5.45;3.40;;;;;;;-148.56;100.00;61375.16;4995942;28;20022;-31
2021/08/12 00:12:45;;;;;;;5.00;2.92;;;;;;;-148.56;100.00;61375.16;4996874;28;20088;-32
2021/08/12 00:16:09;;;;;;;5.20;3.13;;;;;;;-148.56;100.00;61375.16;4995380;28;20113;-32
2021/08/12 00:19:33;;;;;;;5.38;3.10;;;;;;;-148.56;100.00;61375.16;4990921;28;20066;-31
2021/08/12 00:22:57;;;;;;;3.88;3.08;;;;;;;-148.56;100.00;61375.16;4999941;28;20030;-32
2021/08/12 00:26:21;;;;;;;4.93;3.20;;;;;;;-148.56;100.00;61375.16;4996066;28;22240;-33
2021/08/12 00:29:45;;;;;;;5.30;3.25;;;;;;;-148.56;100.00;61375.16;4999687;28;20108;-29
2021/08/12 00:33:08;;;;;;;4.70;2.80;;;;;;;-148.56;100.00;61375.16;4994840;28;20033;-30
2021/08/12 00:36:32;;;;;;;4.63;2.95;;;;;;;-148.56;100.00;61375.16;4997573;28;20025;-34
2021/08/12 00:39:56;;;;;;;4.03;2.53;;;;;;;-148.56;100.00;61375.16;4999525;28;20107;-33
2021/08/12 00:43:20;;;;;;;4.05;3.10;;;;;;;-148.56;100.00;61375.16;4987883;28;20026;-33
2021/08/12 00:46:44;;;;;;;4.32;2.80;;;;;;;-148.56;100.00;61375.16;4992097;28;20163;-34
2021/08/12 00:50:08;;;;;;;5.72;3.05;;;;;;;-148.56;100.00;61375.16;4994169;28;20049;-29
2021/08/12 00:53:32;;;;;;;4.15;2.88;;;;;;;-148.56;100.00;61375.16;4987558;28;20054;-30
2021/08/12 00:56:56;;;;;;;5.30;3.03;;;;;;;-148.56;100.00;61375.16;4986961;28;20030;-33
2021/08/12 01:00:20;;;;;;;4.90;2.97;;;;;;;-148.56;100.00;61375.16;4994907;28;20044;-33
2021/08/12 01:03:44;;;;;;;4.50;3.00;;;;;;;-148.56;100.00;61375.16;4992174;28;20121;-32
2021/08/12 01:07:13;;;;;;;7.57;3.10;;;;;;;-148.56;100.00;61375.16;4997857;28;20519;-30
2021/08/12 01:10:37;;;;;;;7.13;2.83;;;;;;;-148.56;100.00;61375.16;4998346;28;20045;-37
2021/08/12 01:14:28;;;;;;;6.07;2.83;;;;;;;-148.56;100.00;61375.16;4994622;28;20030;-35
2021/08/12 01:18:00;;;;;;;3.97;2.88;;;;;;;-148.56;100.00;61375.16;4992058;28;20124;-32
2021/08/12 01:21:29;;;;;;;;;;;;;;;-148.56;100.00;61375.16;4982045;28;20038;-33
2021/08/12 01:24:56;;;;;;;3.28;2.70;;;;;;;-148.56;100.00;61375.16;4977321;28;20364;-35
2021/08/12 01:28:25;;;;;;;4.93;2.70;;;;;;;-148.56;100.00;61375.16;4987300;28;20414;-34
2021/08/12 01:32:09;;;;;;;4.00;2.78;;;;;;;-148.56;100.00;61375.16;5004516;28;20022;-32
2021/08/12 01:35:43;;;;;;;4.97;2.75;;;;;;;-148.56;100.00;61375.16;4993957;28;20050;-31
2021/08/12 01:39:16;;;;;;;3.55;2.80;;;;;;;-148.56;100.00;61375.16;4983961;28;20026;-31
2021/08/12 01:42:40;;;;;;;3.47;2.90;;;;;;;-148.56;100.00;61375.16;4994401;28;20514;-30
2021/08/12 01:46:04;;;;;;;6.88;2.83;;;;;;;-148.56;100.00;61375.16;4980886;28;20492;-35
2021/08/12 01:49:29;;;;;;;3.92;2.70;;;;;;;-148.56;100.00;61375.16;4978913;28;20026;-31
2021/08/12 01:52:52;;;;;;;7.30;2.78;;;;;;;-148.56;100.00;61375.16;4992357;28;20040;-37
2021/08/12 01:56:17;;;;;;;4.10;2.67;;;;;;;-148.56;100.00;61375.16;4992628;28;20060;-32
2021/08/12 01:59:41;;;;;;;3.00;2.63;;;;;;;-148.56;100.00;61375.16;4976631;28;20045;-36
2021/08/12 02:03:05;;;;;;;4.32;2.67;;;;;;;-148.56;100.00;61375.16;4988689;28;20033;-33
2021/08/12 02:06:34;;;;;;;4.95;2.95;;;;;;;-148.56;100.00;61375.16;4999124;28;20052;-33
2021/08/12 02:09:58;;;;;;;3.97;2.45;;;;;;;-148.56;100.00;61375.16;5000973;28;20026;-29
2021/08/12 02:13:24;;;;;;;3.55;2.67;;;;;;;-148.56;100.00;61375.16;4992200;28;20018;-34
2021/08/12 02:16:48;;;;;;;4.38;2.85;;;;;;;-148.56;100.00;61375.16;4990899;28;20107;-32
2021/08/12 02:20:13;;;;;;;3.08;2.67;;;;;;;-148.56;100.00;61375.16;4992509;28;20022;-32
2021/08/12 02:23:45;;;;;;;4.75;2.72;;;;;;;-148.56;100.00;61375.16;4985217;28;20692;-32
2021/08/12 02:27:15;;;;;;;3.93;2.73;;;;;;;-148.56;100.00;61375.16;4990925;28;20107;-31
2021/08/12 02:30:39;;;;;;;5.13;2.70;;;;;;;-148.56;100.00;61375.16;4996664;28;20028;-34
2021/08/12 02:34:04;;;;;;;4.35;2.65;;;;;;;-148.56;100.00;61375.16;4991267;28;20748;-35
2021/08/12 02:37:28;;;;;;;3.95;2.63;;;;;;;-148.56;100.00;61375.16;4997133;28;20026;-33
2021/08/12 02:40:52;;;;;;;4.07;2.72;;;;;;;-148.56;100.00;61375.16;4997477;28;20042;-37
2021/08/12 02:44:17;;;;;;;3.72;2.60;;;;;;;-148.56;100.00;61375.16;4997236;28;20062;-34
2021/08/12 02:47:41;;;;;;;3.47;2.63;;;;;;;-148.56;100.00;61375.16;4989382;28;20032;-34
2021/08/12 02:51:05;;;;;;;4.53;2.47;;;;;;;-148.56;100.00;61375.16;4986258;28;20029;-32
2021/08/12 02:54:29;;;;;;;2.95;2.42;;;;;;;-148.56;100.00;61375.16;4992835;28;20038;-30
2021/08/12 02:57:54;;;;;;;2.70;2.50;;;;;;;-148.56;100.00;61375.16;4994765;28;20056;-35
2021/08/12 03:01:18;;;;;;;3.92;2.63;;;;;;;-148.56;100.00;61375.16;4992072;28;20030;-30
2021/08/12 03:04:42;;;;;;;6.25;2.50;;;;;;;-148.56;100.00;61375.16;5011711;28;20048;-33
2021/08/12 03:08:06;;;;;;;5.40;2.50;;;;;;;-148.56;100.00;61375.16;4998065;28;20065;-30
2021/08/12 03:11:30;;;;;;;4.78;2.78;;;;;;;-148.56;100.00;61375.16;4985786;28;20026;-30
2021/08/12 03:14:54;;;;;;;3.53;2.50;;;;;;;-148.56;100.00;61375.16;4995848;28;20052;-34
2021/08/12 03:18:18;;;;;;;3.92;2.50;;;;;;;-148.56;100.00;61375.16;4980852;28;20129;-34
2021/08/12 03:21:57;;;;;;;4.47;2.60;;;;;;;-148.56;100.00;61375.16;4987880;28;20034;-32
2021/08/12 03:25:21;;;;;;;4.03;2.42;;;;;;;-148.56;100.00;61375.16;5000649;28;20038;-30
2021/08/12 03:28:45;;;;;;;3.28;2.17;;;;;;;-148.56;100.00;61375.16;4992535;28;20026;-33
2021/08/12 03:32:09;;;;;;;3.97;2.72;;;;;;;-148.56;100.00;61375.16;5000067;28;20470;-32
2021/08/12 03:35:33;;;;;;;4.68;2.40;;;;;;;-148.56;100.00;61375.16;4994920;28;20033;-34
2021/08/12 03:38:57;;;;;;;4.30;2.45;;;;;;;-148.56;100.00;61375.16;4999200;28;20037;-36
2021/08/12 03:42:21;;;;;;;4.53;2.65;;;;;;;-148.56;100.00;61375.16;4995822;28;20046;-30
2021/08/12 03:45:47;;;;;;;7.20;2.85;;;;;;;-148.56;100.00;61375.16;4996066;28;20030;-31
2021/08/12 03:49:11;;;;;;;5.68;2.78;;;;;;;-148.56;100.00;61375.16;4986170;28;20041;-31
2021/08/12 03:52:35;;;;;;;8.77;2.80;;;;;;;-148.56;100.00;61375.16;4995772;28;20030;-30
2021/08/12 03:56:00;;;;;;;4.88;2.55;;;;;;;-148.56;100.00;61375.16;4993892;28;20029;-32
2021/08/12 03:59:24;;;;;;;4.80;2.60;;;;;;;-148.56;100.00;61375.16;4996606;28;20026;-33
2021/08/12 04:02:48;;;;;;;3.47;2.17;;;;;;;-148.56;100.00;61375.16;4999420;28;20138;-37
2021/08/12 04:06:12;;;;;;;4.40;2.40;;;;;;;-148.56;100.00;61375.16;4998346;28;20558;-31
2021/08/12 04:09:36;;;;;;;7.93;2.53;;;;;;;-148.56;100.00;61375.16;4998016;28;20701;-34
2021/08/12 04:13:00;;;;;;;3.83;2.78;;;;;;;-148.56;100.00;61375.16;4998032;28;20041;-36
2021/08/12 04:16:23;;;;;;;4.78;2.40;;;;;;;-148.56;100.00;61375.16;4998897;28;20037;-32
2021/08/12 04:19:47;;;;;;;5.35;2.60;;;;;;;-148.56;100.00;61375.16;4995291;28;20404;-31
2021/08/12 04:23:11;;;;;;;4.38;2.70;;;;;;;-148.56;100.00;61375.16;4989050;28;20133;-29
2021/08/12 04:26:35;;;;;;;5.93;2.45;;;;;;;-148.56;100.00;61375.16;4998119;28;20428;-31
2021/08/12 04:29:59;;;;;;;2.55;2.17;;;;;;;-148.56;100.00;61375.16;5001197;28;20076;-36
2021/08/12 04:33:23;;;;;;;3.85;2.78;;;;;;;-148.56;100.00;61375.16;4997297;28;20381;-32
2021/08/12 04:36:46;;;;;;;5.03;2.50;;;;;;;-148.56;100.00;61375.16;4998617;28;20069;-32
2021/08/12 04:40:12;;;;;;;3.90;2.40;;;;;;;-148.56;100.00;61375.16;4999008;28;20033;-30
2021/08/12 04:43:36;;;;;;;5.70;2.28;;;;;;;-148.56;100.00;61375.16;4989487;28;20029;-33
2021/08/12 04:46:59;;;;;;;5.97;2.40;;;;;;;-148.56;100.00;61375.16;4991096;28;21029;-37
2021/08/12 04:50:23;;;;;;;5.97;2.92;;;;;;;-148.56;100.00;61375.16;4991584;28;20033;-34
2021/08/12 04:53:47;;;;;;;4.43;2.58;;;;;;;-148.56;100.00;61375.16;4982753;28;20038;-31
2021/08/12 04:57:11;;;;;;;4.97;2.78;;;;;;;-148.56;100.00;61375.16;4985972;28;20057;-29
2021/08/12 05:00:35;;;;;;;4.22;2.45;;;;;;;-148.56;100.00;61375.16;4995400;28;20030;-32
2021/08/12 05:03:59;;;;;;;3.85;2.33;;;;;;;-148.56;100.00;61375.16;4990731;28;20033;-30
2021/08/12 05:07:23;;;;;;;4.68;2.67;;;;;;;-148.56;100.00;61375.16;4998250;28;20052;-30
2021/08/12 05:10:47;;;;;;;9.27;2.25;;;;;;;-148.56;100.00;61375.16;4997906;28;20038;-33
2021/08/12 05:14:11;;;;;;;2.50;2.20;;;;;;;-148.56;100.00;61375.16;4991084;28;20029;-35
2021/08/12 05:17:34;;;;;;;5.65;2.70;;;;;;;-148.56;100.00;61375.16;4991401;28;20030;-33
2021/08/12 05:20:58;;;;;;;3.90;2.45;;;;;;;-148.56;100.00;61375.16;4995261;28;20030;-32
2021/08/12 05:24:22;;;;;;;5.35;2.58;;;;;;;-148.56;100.00;61375.16;4994425;28;20023;-31
2021/08/12 05:27:46;;;;;;;4.85;2.80;;;;;;;-148.56;100.00;61375.16;4996447;28;20022;-32
2021/08/12 05:31:12;;;;;;;3.38;2.20;;;;;;;-148.56;100.00;61375.16;4997519;28;20041;-34
2021/08/12 05:34:36;;;;;;;3.58;2.30;;;;;;;-148.56;100.00;61375.16;4996931;28;20053;-33
2021/08/12 05:38:00;;;;;;;3.80;2.38;;;;;;;-148.56;100.00;61375.16;4995111;28;20058;-32
2021/08/12 05:41:24;;;;;;;3.30;2.47;;;;;;;-148.56;100.00;61375.16;4990372;28;20149;-37
2021/08/12 05:44:48;;;;;;;3.67;2.53;;;;;;;-148.56;100.00;61375.16;4997707;28;20405;-35
2021/08/12 05:48:12;;;;;;;3.83;2.40;;;;;;;-148.56;100.00;61375.16;4992572;28;20688;-33
2021/08/12 05:51:37;;;;;;;2.80;2.40;;;;;;;-148.56;100.00;61375.16;4990274;28;20036;-30
2021/08/12 05:55:01;;;;;;;4.05;2.70;;;;;;;-148.56;100.00;61375.16;4989385;28;20048;-35
2021/08/12 05:58:25;;;;;;;3.10;2.30;;;;;;;-148.56;100.00;61375.16;4994447;28;20080;-31
2021/08/12 06:01:49;;;;;;;7.78;2.70;;;;;;;-148.56;100.00;61375.16;4989668;28;20065;-33
2021/08/12 06:05:12;;;;;;;3.15;2.63;;;;;;;-148.56;100.00;61375.16;4991223;28;20053;-36
2021/08/12 06:08:36;;;;;;;3.35;2.47;;;;;;;-148.56;100.00;61375.16;4993466;28;20456;-34
2021/08/12 06:12:00;;;;;;;3.88;2.60;;;;;;;-148.56;100.00;61375.16;4987727;28;20156;-36
2021/08/12 06:15:24;;;;;;;4.45;2.53;;;;;;;-148.56;100.00;61375.16;4990073;28;20639;-32
2021/08/12 06:18:48;;;;;;;2.72;2.22;;;;;;;-148.56;100.00;61375.16;4992485;28;20057;-33
2021/08/12 06:22:12;;;;;;;4.53;2.80;;;;;;;-148.56;100.00;61375.16;4991416;28;20029;-32
2021/08/12 06:25:36;;;;;;;11.98;3.83;;;;;;;-148.56;100.00;61375.16;4993308;28;20026;-31
2021/08/12 06:29:00;;;;;;;23.05;7.30;;;;;;;-148.56;100.00;61375.16;4995863;28;20034;-31
2021/08/12 06:32:26;;;;;;;10.50;5.60;;;;;;;-148.56;100.00;61375.16;4985916;28;20528;-30
2021/08/12 06:35:50;;;;;;;9.85;5.07;;;;;;;-148.56;100.00;61375.16;4991324;28;20030;-30
2021/08/12 06:39:14;;;;;;;8.82;5.35;;;;;;;-148.56;100.00;61375.16;4991693;28;20048;-32
2021/08/12 06:42:38;;;;;;;11.13;4.72;;;;;;;-148.56;100.00;61375.16;4989863;28;20026;-32
2021/08/12 06:46:03;;;;;;;11.23;5.07;;;;;;;-148.56;100.00;61375.16;4988729;28;20509;-38
2021/08/12 06:49:27;;;;;;;8.52;4.70;;;;;;;-148.56;100.00;61375.16;5003668;28;20049;-30
2021/08/12 06:52:51;;;;;;;9.02;4.93;;;;;;;-148.56;100.00;61375.16;4980517;28;20078;-31
2021/08/12 06:56:14;;;;;;;14.65;5.50;;;;;;;-148.56;100.00;61375.16;4987805;28;20033;-33
2021/08/12 06:59:38;;;;;;;12.38;5.30;;;;;;;-148.56;100.00;61375.16;4985898;28;20492;-30
2021/08/12 07:03:02;;;;;;;16.50;5.00;;;;;;;-148.56;100.00;61375.16;4986318;28;20113;-36
2021/08/12 07:06:26;;;;;;;16.35;5.93;;;;;;;-148.56;100.00;61375.16;4989465;28;20025;-33
2021/08/12 07:09:51;;;;;;;11.60;4.90;;;;;;;-148.56;100.00;61375.16;4989013;28;20037;-34
2021/08/12 07:13:15;;;;;;;10.88;5.32;;;;;;;-148.56;100.00;61375.16;4988607;28;20030;-32
2021/08/12 07:16:39;;;;;;;13.55;4.95;;;;;;;-148.56;100.00;61375.16;4982974;28;20033;-36
2021/08/12 07:20:03;;;;;;;12.38;5.53;;;;;;;-148.56;100.00;61375.16;4989117;28;20427;-33
2021/08/12 07:23:30;;;;;;;15.32;5.60;;;;;;;-148.56;100.00;61375.16;4978097;28;20032;-31
2021/08/12 07:26:57;;;;;;;13.98;5.78;;;;;;;-148.56;100.00;61375.16;4990346;28;20084;-32
2021/08/12 07:30:21;;;;;;;13.43;5.18;;;;;;;-148.56;100.00;61375.16;4989860;28;22164;-31
2021/08/12 07:33:45;;;;;;;9.05;5.38;;;;;;;-148.56;100.00;61375.16;4990623;28;20152;-30
2021/08/12 07:37:09;;;;;;;14.10;5.35;;;;;;;-148.56;100.00;61375.16;4992378;28;20025;-35
2021/08/12 07:40:33;;;;;;;11.18;5.20;;;;;;;-148.56;100.00;61375.16;4993128;28;20140;-29
2021/08/12 07:43:57;;;;;;;13.63;5.40;;;;;;;-148.56;100.00;61375.16;4991847;28;20370;-30
2021/08/12 07:47:20;;;;;;;7.75;4.53;;;;;;;-148.56;100.00;61375.16;4990808;28;20113;-32
2021/08/12 07:50:44;;;;;;;9.80;4.28;;;;;;;-148.56;100.00;61375.16;4984817;28;20108;-34
2021/08/12 07:54:08;;;;;;;8.07;4.97;;;;;;;-148.56;100.00;61375.16;4995301;28;21069;-30
2021/08/12 07:57:32;;;;;;;7.93;4.40;;;;;;;-148.56;100.00;61375.16;4990984;28;20079;-32
2021/08/12 08:00:56;;;;;;;6.07;4.57;;;;;;;-148.56;100.00;61375.16;4991140;28;20026;-32
2021/08/12 08:04:20;;;;;;;7.40;5.25;;;;;;;-148.56;100.00;61375.16;4989368;28;20036;-32
2021/08/12 08:07:44;;;;;;;10.65;4.88;;;;;;;-148.56;100.00;61375.16;4992951;28;20945;-33
2021/08/12 08:11:08;;;;;;;19.90;5.53;;;;;;;-148.56;100.00;61375.16;4994945;28;20034;-32
2021/08/12 08:14:32;;;;;;;7.22;5.20;;;;;;;-148.56;100.00;61375.16;4984936;28;20050;-35
2021/08/12 08:17:56;;;;;;;8.43;5.38;;;;;;;-148.56;100.00;61375.16;4987562;28;20040;-35
2021/08/12 08:21:20;;;;;;;8.25;4.93;;;;;;;-148.56;100.00;61375.16;4989745;28;21479;-30
2021/08/12 08:24:44;;;;;;;7.75;5.00;;;;;;;-148.56;100.00;61375.16;4990071;28;20049;-32
2021/08/12 08:28:08;;;;;;;7.63;4.47;;;;;;;-148.56;100.00;61375.16;4993256;28;20149;-35
2021/08/12 08:31:32;;;;;;;7.60;4.93;;;;;;;-148.56;100.00;61375.16;4991004;28;20044;-31
2021/08/12 08:34:56;;;;;;;8.90;5.20;;;;;;;-148.56;100.00;61375.16;4987909;28;20503;-33
2021/08/12 08:38:20;;;;;;;7.40;4.53;;;;;;;-148.56;100.00;61375.16;4992438;28;20172;-33
2021/08/12 08:41:44;;;;;;;10.63;5.10;;;;;;;-148.56;100.00;61375.16;4990994;28;20673;-32
2021/08/12 08:45:08;;;;;;;7.63;4.43;;;;;;;-148.56;100.00;61375.16;4985271;28;20041;-32
2021/08/12 08:48:32;;;;;;;6.00;4.55;;;;;;;-148.56;100.00;61375.16;4999954;28;20554;-33
2021/08/12 08:51:56;;;;;;;7.68;4.18;;;;;;;-148.56;100.00;61375.16;4995695;28;20045;-32
2021/08/12 08:55:21;;;;;;;6.88;4.38;;;;;;;-148.56;100.00;61375.16;4998781;28;20112;-33
2021/08/12 08:59:03;;;;;;;7.25;4.90;;;;;;;-148.56;100.00;61375.16;5001182;28;20115;-30
2021/08/12 09:02:26;;;;;;;12.30;5.03;;;;;;;-148.56;100.00;61375.16;4988191;28;20034;-31
2021/08/12 09:05:50;;;;;;;8.88;4.53;;;;;;;-148.56;100.00;61375.16;4986736;28;20105;-32
2021/08/12 09:09:14;;;;;;;8.95;4.82;;;;;;;-148.56;100.00;61375.16;4993110;28;20037;-35
2021/08/12 09:12:40;;;;;;;11.45;4.57;;;;;;;-148.56;100.00;61375.16;4998804;28;20025;-32
2021/08/12 09:16:05;;;;;;;6.82;4.40;;;;;;;-148.56;100.00;61375.16;4991409;28;20041;-34
2021/08/12 09:19:29;;;;;;;6.78;4.35;;;;;;;-148.56;100.00;61375.16;4997958;28;20030;-33
2021/08/12 09:23:02;;;;;;;7.18;4.45;;;;;;;-148.56;100.00;61375.16;4999688;28;20026;-31
2021/08/12 09:26:28;;;;;;;6.82;4.00;;;;;;;-148.56;100.00;61375.16;5000494;28;20141;-35
2021/08/12 09:30:08;;;;;;;7.25;4.50;;;;;;;-148.56;100.00;61375.16;5001111;28;20231;-35
2021/08/12 09:33:42;;;;;;;5.82;4.57;;;;;;;-148.56;100.00;61375.16;4994989;28;20029;-33
2021/08/12 09:37:19;;;;;;;7.43;4.63;;;;;;;-148.56;100.00;61375.16;5000719;28;20033;-31
2021/08/12 09:40:43;;;;;;;5.40;3.97;;;;;;;-148.56;100.00;61375.16;4998983;28;20433;-33
2021/08/12 09:44:27;;;;;;;7.55;4.35;;;;;;;-148.56;100.00;61375.16;4995897;28;20058;-32
2021/08/12 09:47:55;;;;;;;7.13;4.03;;;;;;;-148.56;100.00;61375.16;4986641;28;20045;-30
2021/08/12 09:51:24;;;;;;;7.28;4.28;;;;;;;-148.56;100.00;61375.16;4998222;28;20129;-31
2021/08/12 09:55:01;;;;;;;9.10;4.28;;;;;;;-148.56;100.00;61375.16;4998595;28;20037;-29
2021/08/12 09:58:44;;;;;;;6.93;4.40;;;;;;;-148.56;100.00;61375.16;5000673;28;20110;-31
2021/08/12 10:02:11;;;;;;;;;;;;;;;-148.56;100.00;61375.16;4991629;28;20112;-31
2021/08/12 10:05:35;;;;;;;7.75;4.03;;;;;;;-148.56;100.00;61375.16;4999397;28;19921;-32
2021/08/12 10:09:00;;;;;;;5.55;3.95;;;;;;;-148.56;100.00;61375.16;4994720;28;20074;-34
2021/08/12 10:12:42;;;;;;;7.50;3.40;;;;;;;-148.56;100.00;61375.16;4991652;28;20088;-34
2021/08/12 10:16:06;;;;;;;6.30;3.83;;;;;;;-148.56;100.00;61375.16;4995458;28;20860;-33
2021/08/12 10:19:30;;;;;;;6.13;3.97;;;;;;;-148.56;100.00;61375.16;4996804;28;20156;-34
2021/08/12 10:22:57;;;;;;;4.85;3.80;;;;;;;-148.56;100.00;61375.16;4997536;28;20587;-33
2021/08/12 10:26:25;;;;;;;4.85;3.70;;;;;;;-148.56;100.00;61375.16;4995921;28;20121;-31
2021/08/12 10:29:50;;;;;;;6.28;3.92;;;;;;;-148.56;100.00;61375.16;4996870;28;20113;-30
2021/08/12 10:33:13;;;;;;;6.03;4.10;;;;;;;-148.56;100.00;61375.16;4996939;28;20056;-30
2021/08/12 10:36:37;;;;;;;4.72;3.45;;;;;;;-148.56;100.00;61375.16;4996508;28;20030;-29
2021/08/12 10:40:02;;;;;;;5.40;3.80;;;;;;;-148.56;100.00;61375.16;4993131;28;20044;-30
2021/08/12 10:43:26;;;;;;;4.70;3.88;;;;;;;-148.56;100.00;61375.16;4985815;28;20036;-29
2021/08/12 10:46:51;;;;;;;3.95;3.38;;;;;;;-148.56;100.00;61375.16;4993068;28;22486;-32
2021/08/12 10:50:24;;;;;;;6.18;3.50;;;;;;;-148.56;100.00;61375.16;4993698;28;20577;-32
2021/08/12 10:54:16;;;;;;;5.30;3.47;;;;;;;-148.56;100.00;61375.16;4993647;28;20109;-32
2021/08/12 10:57:39;;;;;;;5.77;3.53;;;;;;;-148.56;100.00;61375.16;4980446;28;20590;-32
2021/08/12 11:01:07;;;;;;;5.53;3.70;;;;;;;-148.56;100.00;61375.16;4993203;28;20479;-32
2021/08/12 11:04:51;;;;;;;4.60;3.20;;;;;;;-148.56;100.00;61375.16;4993199;28;20315;-33
2021/08/12 11:08:49;;;;;;;13.02;3.38;;;;;;;-148.56;100.00;61375.16;4994000;28;20029;-32
2021/08/12 11:12:19;;;;;;;7.10;3.50;;;;;;;-148.56;100.00;61375.16;4995649;28;20030;-33
2021/08/12 11:15:49;;;;;;;4.03;3.08;;;;;;;-148.56;100.00;61375.16;4994655;28;20057;-31
2021/08/12 11:19:22;;;;;;;6.10;3.20;;;;;;;-148.56;100.00;61375.16;5010551;28;20089;-31
2021/08/12 11:22:46;;;;;;;3.90;3.10;;;;;;;-148.56;100.00;61375.16;4995443;28;20137;-31
2021/08/12 11:26:10;;;;;;;5.40;3.50;;;;;;;-148.56;100.00;61375.16;4992083;28;20069;-31
2021/08/12 11:29:38;;;;;;;5.93;3.33;;;;;;;-148.56;100.00;61375.16;4982862;28;20042;-31
2021/08/12 11:33:25;;;;;;;3.67;3.10;;;;;;;-148.56;100.00;61375.16;4989661;28;20045;-33
2021/08/12 11:37:08;;;;;;;4.95;2.95;;;;;;;-148.56;100.00;61375.16;4991296;28;20044;-34
2021/08/12 11:40:32;;;;;;;5.38;3.45;;;;;;;-148.56;100.00;61375.16;4989084;28;20631;-31
2021/08/12 11:43:56;;;;;;;4.32;3.20;;;;;;;-148.56;100.00;61375.16;4989059;28;20048;-30
2021/08/12 11:47:20;;;;;;;6.38;3.13;;;;;;;-148.56;100.00;61375.16;4991967;28;20036;-32
2021/08/12 11:50:50;;;;;;;10.68;3.90;;;;;;;-148.56;100.00;61375.16;4988444;28;20034;-32
2021/08/12 11:54:24;;;;;;;5.88;3.53;;;;;;;-148.56;100.00;61375.16;4992063;28;20029;-30
2021/08/12 11:57:49;;;;;;;9.40;3.42;;;;;;;-148.56;100.00;61375.16;4998214;28;20076;-33
2021/08/12 12:01:23;;;;;;;5.78;2.88;;;;;;;-148.56;100.00;61375.16;5007578;28;20084;-32
2021/08/12 12:04:48;;;;;;;4.53;3.20;;;;;;;-148.56;100.00;61375.16;5013136;28;20033;-30
2021/08/12 12:08:12;;;;;;;5.65;3.10;;;;;;;-148.56;100.00;61375.16;5012591;28;20057;-32
2021/08/12 12:11:38;;;;;;;4.55;3.03;;;;;;;-148.56;100.00;61375.16;5021965;28;20025;-32
2021/08/12 12:15:02;;;;;;;5.97;3.28;;;;;;;-148.56;100.00;61375.16;5020609;28;20585;-31
2021/08/12 12:18:30;;;;;;;4.72;3.28;;;;;;;-148.56;100.00;61375.16;5020939;28;20050;-30
2021/08/12 12:21:53;;;;;;;6.70;3.20;;;;;;;-148.56;100.00;61375.16;5019825;28;20063;-31
2021/08/12 12:25:18;;;;;;;6.80;3.63;;;;;;;-148.56;100.00;61375.16;5016756;28;20112;-31
2021/08/12 12:28:44;;;;;;;4.43;3.17;;;;;;;-148.56;100.00;61375.16;5010842;28;20121;-31
2021/08/12 12:32:15;;;;;;;5.93;3.22;;;;;;;-148.56;100.00;61375.16;5005261;28;20069;-32
2021/08/12 12:35:48;;;;;;;4.00;2.90;;;;;;;-148.56;100.00;61375.16;5022014;28;20018;-30
2021/08/12 12:39:13;;;;;;;5.68;3.42;;;;;;;-148.56;100.00;61375.16;5010579;28;20879;-30
2021/08/12 12:42:37;;;;;;;3.85;2.88;;;;;;;-148.56;100.00;61375.16;5017076;28;20032;-31
2021/08/12 12:46:02;;;;;;;3.33;2.53;;;;;;;-148.56;100.00;61375.16;5015809;28;20065;-32
2021/08/12 12:49:29;;;;;;;4.20;2.80;;;;;;;-148.56;100.00;61375.16;5017104;28;20029;-32
2021/08/12 12:53:03;;;;;;;3.95;2.80;;;;;;;-148.56;100.00;61375.16;5010617;28;20033;-31
2021/08/12 12:56:31;;;;;;;4.47;2.78;;;;;;;-148.56;100.00;61375.16;5018057;28;20112;-32
2021/08/12 12:59:55;;;;;;;5.68;2.88;;;;;;;-148.56;100.00;61375.16;5014969;28;20056;-32
2021/08/12 13:03:21;;;;;;;4.35;2.88;;;;;;;-148.56;100.00;61375.16;5015775;28;20102;-33
2021/08/12 13:06:49;;;;;;;5.03;2.92;;;;;;;-148.56;100.00;61375.16;5014424;28;20048;-35
2021/08/12 13:10:29;;;;;;;3.75;2.80;;;;;;;-148.56;100.00;61375.16;5005126;28;20511;-32
2021/08/12 13:14:07;;;;;;;3.88;2.80;;;;;;;-148.56;100.00;61375.16;5017710;28;20036;-35
2021/08/12 13:17:37;;;;;;;3.88;2.83;;;;;;;-148.56;100.00;61375.16;5002240;28;20116;-36
2021/08/12 13:21:22;;;;;;;4.07;2.65;;;;;;;-148.56;100.00;61375.16;5010153;28;20033;-29
2021/08/12 13:24:50;;;;;;;4.93;2.53;;;;;;;-148.56;100.00;61375.16;5017750;28;20052;-33
2021/08/12 13:28:14;;;;;;;5.80;2.67;;;;;;;-148.56;100.00;61375.16;5014149;28;20037;-31
2021/08/12 13:31:38;;;;;;;5.32;2.72;;;;;;;-148.56;100.00;61375.16;5014470;28;20256;-31
2021/08/12 13:35:03;;;;;;;4.03;2.65;;;;;;;-148.56;100.00;61375.16;5020404;28;20108;-33
2021/08/12 13:38:26;;;;;;;2.80;2.47;;;;;;;-148.56;100.00;61375.16;5008950;28;20107;-36
2021/08/12 13:41:58;;;;;;;3.70;2.78;;;;;;;-148.56;100.00;61375.16;5019446;28;20055;-32
2021/08/12 13:45:23;;;;;;;3.10;2.70;;;;;;;-148.56;100.00;61375.16;5016529;28;20025;-36
2021/08/12 13:48:47;;;;;;;3.13;2.63;;;;;;;-148.56;100.00;61375.16;5014263;28;20056;-32
2021/08/12 13:52:12;;;;;;;3.15;2.58;;;;;;;-148.56;100.00;61375.16;5014723;28;20507;-29
2021/08/12 13:55:36;;;;;;;5.03;2.75;;;;;;;-148.56;100.00;61375.16;5010790;28;20064;-31
2021/08/12 13:59:01;;;;;;;3.55;2.30;;;;;;;-148.56;100.00;61375.16;5014614;28;20036;-33
2021/08/12 14:02:26;;;;;;;2.97;2.28;;;;;;;-148.56;100.00;61375.16;5014420;28;20389;-31
2021/08/12 14:05:50;;;;;;;3.08;2.28;;;;;;;-148.56;100.00;61375.16;5021136;28;20029;-31
2021/08/12 14:09:18;;;;;;;3.15;2.55;;;;;;;-148.56;100.00;61375.16;5019138;28;20117;-33
2021/08/12 14:12:44;;;;;;;3.13;2.35;;;;;;;-148.56;100.00;61375.16;5017630;28;20029;-37
2021/08/12 14:16:08;;;;;;;2.50;2.22;;;;;;;-148.56;100.00;61375.16;5018495;28;20544;-34
2021/08/12 14:19:32;;;;;;;4.72;2.60;;;;;;;-148.56;100.00;61375.16;5016196;28;20040;-31
2021/08/12 14:22:56;;;;;;;4.03;2.50;;;;;;;-148.56;100.00;61375.16;5019835;28;20029;-35
2021/08/12 14:26:20;;;;;;;3.05;2.10;;;;;;;-148.56;100.00;61375.16;5018559;28;20048;-34
2021/08/12 14:29:43;;;;;;;3.38;2.42;;;;;;;-148.56;100.00;61375.16;5016633;28;20044;-33
2021/08/12 14:33:07;;;;;;;2.92;2.45;;;;;;;-148.56;100.00;61375.16;5020874;28;20037;-33
2021/08/12 14:36:31;;;;;;;2.88;2.28;;;;;;;-148.56;100.00;61375.16;5019816;28;20056;-32
2021/08/12 14:39:55;;;;;;;3.30;2.13;;;;;;;-148.56;100.00;61375.16;5020938;28;20376;-31
2021/08/12 14:43:19;;;;;;;2.95;2.30;;;;;;;-148.56;100.00;61375.16;5025339;28;20031;-32
2021/08/12 14:46:43;;;;;;;2.47;2.28;;;;;;;-148.56;100.00;61375.16;5019080;28;20064;-32
2021/08/12 14:50:07;;;;;;;2.22;2.03;;;;;;;-148.56;100.00;61375.16;5019963;28;20017;-30
2021/08/12 14:53:31;;;;;;;2.30;2.10;;;;;;;-148.56;100.00;61375.16;5022122;28;20106;-31
2021/08/12 14:56:55;;;;;;;2.20;1.90;;;;;;;-148.56;100.00;61375.16;5018955;28;20668;-32
2021/08/12 15:00:19;;;;;;;2.53;2.05;;;;;;;-148.56;100.00;61375.16;5019414;28;20120;-31
2021/08/12 15:03:45;;;;;;;3.38;2.13;;;;;;;-148.56;100.00;61375.16;5020504;28;20040;-32
2021/08/12 15:07:09;;;;;;;2.65;2.10;;;;;;;-148.56;100.00;61375.16;5015226;28;20507;-33
2021/08/12 15:10:33;;;;;;;2.97;2.20;;;;;;;-148.56;100.00;61375.16;5011077;28;20032;-32
2021/08/12 15:13:57;;;;;;;2.58;2.13;;;;;;;-148.56;100.00;61375.16;5015972;28;20053;-35
2021/08/12 15:17:21;;;;;;;3.28;2.33;;;;;;;-148.56;100.00;61375.16;5013014;28;20025;-33
2021/08/12 15:20:45;;;;;;;2.67;2.20;;;;;;;-148.56;100.00;61375.16;5017784;28;20021;-30
2021/08/12 15:24:09;;;;;;;2.60;2.20;;;;;;;-148.56;100.00;61375.16;5018009;28;20037;-32
2021/08/12 15:27:32;;;;;;;2.30;2.10;;;;;;;-148.56;100.00;61375.16;5013894;28;20037;-31
2021/08/12 15:30:56;;;;;;;2.65;2.10;;;;;;;-148.56;100.00;61375.16;4994808;28;20035;-31
2021/08/12 15:34:20;;;;;;;2.38;2.10;;;;;;;-148.56;100.00;61375.16;5021086;28;20033;-32
2021/08/12 15:37:44;;;;;;;2.20;2.00;;;;;;;-148.56;100.00;61375.16;5019224;28;20033;-32